Time;durP1;ratioP1;P1;durP2;ratioP2;P2;SDS_P1;SDS_P2;PMS_P1;PMS_P2;Temp;Humidity;BMP_temperature;BMP_pressure;BME280_temperature;BME280_humidity;BME280_pressure;Samples;Min_cycle;Max_cycle;Signal;HPM_P1;HPM_P2
2022/03/28 00:02:09;;;;;;;3.10;2.38;;;;;;;12.68;49.02;102059.69;5191697;28;20029;-79
2022/03/28 00:04:40;;;;;;;1.55;1.48;;;;;;;12.68;48.83;102059.69;5186971;28;20038;-80
2022/03/28 00:07:13;;;;;;;4.07;3.08;;;;;;;12.69;49.59;102057.03;5165004;28;20029;-79
2022/03/28 00:09:44;;;;;;;0.85;0.85;;;;;;;12.67;49.31;102048.28;5194868;28;20115;-79
2022/03/28 00:12:14;;;;;;;0.88;0.88;;;;;;;12.67;49.28;102050.06;5179022;28;20124;-80
2022/03/28 00:14:45;;;;;;;2.83;1.70;;;;;;;12.62;49.47;102041.34;5173504;28;20042;-79
2022/03/28 00:17:15;;;;;;;1.25;1.15;;;;;;;12.62;49.38;102038.69;5193413;28;20025;-79
2022/03/28 00:19:46;;;;;;;1.98;1.42;;;;;;;12.57;49.61;102042.28;5192688;28;20413;-79
2022/03/28 00:22:16;;;;;;;0.73;0.73;;;;;;;12.52;49.60;102041.47;5177066;28;20089;-79
2022/03/28 00:24:47;;;;;;;2.08;1.20;;;;;;;12.49;49.54;102032.75;5193840;28;20710;-79
2022/03/28 00:27:18;;;;;;;3.15;1.70;;;;;;;12.49;50.01;102025.72;5175603;28;20033;-79
2022/03/28 00:29:48;;;;;;;1.40;1.30;;;;;;;12.49;49.59;102024.84;5183357;28;20042;-80
2022/03/28 00:32:21;;;;;;;1.67;1.15;;;;;;;12.44;49.83;102019.63;5191072;28;20091;-79
2022/03/28 00:34:53;;;;;;;2.65;2.45;;;;;;;12.44;49.42;102020.53;5194892;28;20054;-79
2022/03/28 00:37:23;;;;;;;1.10;1.00;;;;;;;12.41;50.12;102022.34;5190504;28;20025;-79
2022/03/28 00:39:54;;;;;;;1.25;1.08;;;;;;;12.37;50.19;102018.88;5193569;28;20492;-80
2022/03/28 00:42:24;;;;;;;0.95;0.95;;;;;;;12.32;49.99;102011.94;5192566;28;20071;-80
2022/03/28 00:44:55;;;;;;;1.80;1.70;;;;;;;12.28;50.30;102009.31;5189922;28;20045;-79
2022/03/28 00:47:25;;;;;;;3.58;2.22;;;;;;;12.31;49.86;102002.28;5195032;28;20055;-80
2022/03/28 00:49:56;;;;;;;2.65;1.13;;;;;;;12.27;50.48;102004.09;5173569;28;20048;-79
2022/03/28 00:52:27;;;;;;;1.10;1.10;;;;;;;12.24;50.03;102007.66;5190368;28;20037;-79
2022/03/28 00:54:58;;;;;;;1.60;1.08;;;;;;;12.22;50.45;102004.16;5189440;28;20049;-79
2022/03/28 00:57:32;;;;;;;2.58;1.25;;;;;;;12.21;50.21;102007.66;5192216;28;20030;-79
2022/03/28 01:00:05;;;;;;;2.17;1.30;;;;;;;12.14;50.00;102000.75;5190383;28;20148;-79
2022/03/28 01:02:37;;;;;;;2.25;2.08;;;;;;;12.12;50.34;101999.91;5174471;28;20030;-78
2022/03/28 01:05:09;;;;;;;0.80;0.80;;;;;;;12.10;50.58;101994.66;5193258;28;20088;-78
2022/03/28 01:07:40;;;;;;;0.98;0.98;;;;;;;12.10;50.22;101996.44;5191425;28;20107;-79
2022/03/28 01:10:11;;;;;;;2.05;0.88;;;;;;;12.07;50.70;101989.44;5194908;28;20041;-78
2022/03/28 01:12:42;;;;;;;0.80;0.80;;;;;;;12.03;50.38;101986.84;5189883;28;20038;-78
2022/03/28 01:15:14;;;;;;;8.02;0.90;;;;;;;12.00;50.70;101992.19;5190162;28;20052;-78
2022/03/28 01:20:38;;;;;;;1.50;1.40;;;;;;;11.93;50.44;101976.44;5190945;28;20509;-78
2022/03/28 01:23:09;;;;;;;2.63;2.20;;;;;;;11.84;50.75;101976.56;5197208;28;20485;-78
2022/03/28 01:25:44;;;;;;;1.45;1.35;;;;;;;11.85;50.58;101969.53;5206032;28;20049;-79
2022/03/28 01:28:15;;;;;;;2.55;2.35;;;;;;;11.82;50.86;101966.03;5211911;28;20493;-80
2022/03/28 01:30:47;;;;;;;1.35;1.27;;;;;;;11.81;51.23;101968.69;5193089;28;20042;-79
2022/03/28 01:33:18;;;;;;;2.80;1.42;;;;;;;11.80;50.47;101966.94;5208720;28;20029;-78
2022/03/28 01:35:48;;;;;;;2.15;1.50;;;;;;;11.75;50.72;101971.41;5191917;28;20103;-79
2022/03/28 01:38:20;;;;;;;1.65;1.50;;;;;;;11.71;50.91;101960.06;5177473;28;20087;-79
2022/03/28 01:40:52;;;;;;;2.67;1.55;;;;;;;11.58;50.71;101956.69;5189735;28;20046;-79
2022/03/28 01:43:23;;;;;;;0.80;0.80;;;;;;;11.62;50.82;101957.53;5193509;28;20057;-80
2022/03/28 01:45:54;;;;;;;2.72;1.80;;;;;;;11.62;51.02;101954.91;5176654;28;20045;-78
2022/03/28 01:48:24;;;;;;;1.30;1.20;;;;;;;11.60;51.03;101954.94;5192667;28;20087;-78
2022/03/28 01:50:55;;;;;;;1.02;0.93;;;;;;;11.58;51.17;101950.56;5177816;28;20516;-79
2022/03/28 01:53:25;;;;;;;2.25;2.05;;;;;;;11.47;50.82;101946.31;5179578;28;20057;-78
2022/03/28 01:55:56;;;;;;;0.85;0.82;;;;;;;11.34;51.01;101950.84;5191873;28;20075;-78
2022/03/28 01:58:26;;;;;;;1.15;1.13;;;;;;;11.34;51.88;101955.19;5198850;28;20410;-79
2022/03/28 02:00:56;;;;;;;0.98;0.98;;;;;;;11.39;52.12;101947.28;5194692;28;20492;-78
2022/03/28 02:03:27;;;;;;;2.25;2.05;;;;;;;11.29;51.31;101947.38;5161645;28;20049;-78
2022/03/28 02:05:57;;;;;;;2.75;2.50;;;;;;;11.28;51.24;101944.75;5192825;28;20136;-79
2022/03/28 02:08:28;;;;;;;1.08;1.05;;;;;;;11.29;51.56;101942.13;5199255;28;20060;-78
2022/03/28 02:10:59;;;;;;;2.08;1.35;;;;;;;11.31;51.94;101940.34;5201732;28;20422;-78
2022/03/28 02:13:29;;;;;;;1.60;1.50;;;;;;;11.17;51.26;101937.84;5184233;28;20033;-78
2022/03/28 02:16:00;;;;;;;1.40;1.33;;;;;;;11.21;51.83;101933.44;5194524;28;20038;-80
2022/03/28 02:18:31;;;;;;;1.90;1.73;;;;;;;11.12;51.64;101936.16;5197012;28;20041;-78
2022/03/28 02:21:01;;;;;;;1.33;1.25;;;;;;;11.15;51.61;101933.50;5202851;28;20042;-78
2022/03/28 02:23:32;;;;;;;1.45;1.35;;;;;;;11.16;51.86;101932.63;5188736;28;20113;-79
2022/03/28 02:26:03;;;;;;;0.93;0.93;;;;;;;11.11;51.67;101929.19;5199378;28;20049;-78
2022/03/28 02:28:34;;;;;;;1.20;1.17;;;;;;;11.12;52.22;101928.28;5181852;28;20490;-78
2022/03/28 02:31:05;;;;;;;1.45;1.35;;;;;;;11.10;51.49;101924.81;5193153;28;20029;-78
2022/03/28 02:33:36;;;;;;;1.17;1.02;;;;;;;11.07;51.62;101922.22;5202834;28;20450;-78
2022/03/28 02:36:06;;;;;;;1.40;1.30;;;;;;;11.05;51.93;101921.34;5174700;28;20401;-79
2022/03/28 02:38:37;;;;;;;1.63;1.25;;;;;;;11.02;51.93;101914.38;5176208;28;20037;-79
2022/03/28 02:41:07;;;;;;;2.92;1.88;;;;;;;11.01;52.17;101915.25;5195404;28;20441;-79
2022/03/28 02:43:38;;;;;;;0.77;0.77;;;;;;;10.95;51.92;101913.56;5195588;28;20336;-79
2022/03/28 02:46:08;;;;;;;2.72;2.13;;;;;;;10.93;51.89;101917.09;5184445;28;20253;-79
2022/03/28 02:48:41;;;;;;;1.67;1.33;;;;;;;10.90;52.41;101912.72;5161317;28;20120;-79
2022/03/28 02:51:12;;;;;;;1.63;1.52;;;;;;;10.90;52.32;101904.84;5209207;28;20048;-79
2022/03/28 02:53:42;;;;;;;1.70;1.60;;;;;;;10.85;51.79;101898.78;5191785;28;21017;-79
2022/03/28 02:56:13;;;;;;;1.60;1.50;;;;;;;10.86;52.34;101898.78;5207382;28;20049;-80
2022/03/28 02:58:43;;;;;;;0.88;0.88;;;;;;;10.86;52.57;101895.28;5190446;28;20033;-79
2022/03/28 03:01:14;;;;;;;1.98;1.80;;;;;;;10.78;52.02;101890.09;5192020;28;20051;-78
2022/03/28 03:03:44;;;;;;;1.30;1.23;;;;;;;10.62;52.29;101884.09;5193693;28;20108;-79
2022/03/28 03:06:16;;;;;;;0.82;0.82;;;;;;;10.70;52.10;101884.91;5175651;28;20541;-79
2022/03/28 03:08:46;;;;;;;3.35;2.45;;;;;;;10.71;52.24;101881.41;5180149;28;20112;-79
2022/03/28 03:11:17;;;;;;;1.40;1.30;;;;;;;10.74;52.38;101884.88;5157509;28;20041;-79
2022/03/28 03:13:49;;;;;;;1.30;1.20;;;;;;;10.71;52.54;101885.78;5191205;28;20025;-80
2022/03/28 03:16:20;;;;;;;1.48;1.33;;;;;;;10.65;52.23;101876.22;5196660;28;20090;-78
2022/03/28 03:18:50;;;;;;;0.93;0.93;;;;;;;10.71;52.79;101875.28;5175929;28;20272;-79
2022/03/28 03:21:21;;;;;;;1.13;1.13;;;;;;;10.65;52.77;101876.22;5189257;28;20040;-78
2022/03/28 03:23:51;;;;;;;1.10;1.10;;;;;;;10.48;52.69;101875.47;5178810;28;20104;-79
2022/03/28 03:26:22;;;;;;;2.05;1.95;;;;;;;10.45;52.63;101875.53;5193213;28;20517;-79
2022/03/28 03:28:55;;;;;;;1.10;1.08;;;;;;;10.49;52.36;101869.34;5194163;28;20514;-79
2022/03/28 03:31:26;;;;;;;0.75;0.75;;;;;;;10.50;52.71;101873.72;5208820;28;20575;-79
2022/03/28 03:33:57;;;;;;;1.33;1.33;;;;;;;10.48;53.19;101867.59;5186787;28;20029;-79
2022/03/28 03:36:27;;;;;;;0.73;0.73;;;;;;;10.45;53.06;101868.50;5142858;28;20120;-79
2022/03/28 03:38:57;;;;;;;1.55;1.42;;;;;;;10.46;52.85;101869.38;5178396;28;20026;-80
2022/03/28 03:41:28;;;;;;;1.90;1.77;;;;;;;10.46;52.99;101869.38;5197551;28;20475;-80
2022/03/28 03:43:59;;;;;;;0.98;0.98;;;;;;;10.43;52.98;101853.66;5204237;28;20029;-79
2022/03/28 03:46:29;;;;;;;1.40;1.30;;;;;;;10.42;53.21;101854.53;5199327;28;20383;-79
2022/03/28 03:48:59;;;;;;;1.33;1.23;;;;;;;10.34;52.47;101859.81;5196932;28;20025;-79
2022/03/28 03:51:30;;;;;;;1.65;1.55;;;;;;;10.27;52.79;101853.75;5194026;28;20504;-80
2022/03/28 03:54:00;;;;;;;1.02;1.00;;;;;;;10.25;53.22;101855.50;5189991;28;20398;-78
2022/03/28 03:56:31;;;;;;;2.38;1.80;;;;;;;10.23;53.76;101855.53;5195167;28;20033;-79
2022/03/28 03:59:02;;;;;;;2.58;2.20;;;;;;;10.11;52.90;101860.00;5192140;28;20041;-80
2022/03/28 04:01:32;;;;;;;1.00;1.00;;;;;;;10.14;53.09;101852.97;5159662;28;20509;-80
2022/03/28 04:04:03;;;;;;;0.82;0.82;;;;;;;10.10;53.08;101848.63;5206687;28;20116;-79
2022/03/28 04:06:33;;;;;;;1.17;1.08;;;;;;;10.15;53.17;101844.22;5187787;28;20033;-78
2022/03/28 04:09:04;;;;;;;1.65;1.50;;;;;;;10.10;53.28;101839.91;5204750;28;20124;-79
2022/03/28 04:11:34;;;;;;;1.75;1.65;;;;;;;10.04;53.30;101835.56;5173158;28;20610;-79
2022/03/28 04:14:05;;;;;;;2.20;1.83;;;;;;;9.91;53.25;101840.00;5174205;28;20405;-79
2022/03/28 04:16:35;;;;;;;1.63;1.52;;;;;;;9.92;53.29;101837.38;5179144;28;20136;-79
2022/03/28 04:19:06;;;;;;;1.75;1.65;;;;;;;10.00;54.06;101845.19;5192731;28;20040;-78
2022/03/28 04:21:36;;;;;;;2.78;2.25;;;;;;;9.94;54.06;101837.38;5170879;28;20121;-79
2022/03/28 04:24:07;;;;;;;1.60;1.50;;;;;;;9.95;53.96;101836.50;5169212;28;20033;-79
2022/03/28 04:26:37;;;;;;;1.15;1.15;;;;;;;9.95;53.92;101838.25;5183554;28;20045;-79
2022/03/28 04:29:07;;;;;;;2.10;1.45;;;;;;;9.96;54.06;101832.97;5168460;28;20247;-79
2022/03/28 04:31:40;;;;;;;2.65;2.45;;;;;;;9.95;54.12;101826.03;5158630;28;20501;-78
2022/03/28 04:34:10;;;;;;;2.17;1.42;;;;;;;9.91;53.82;101829.53;5188829;28;20025;-79
2022/03/28 04:36:41;;;;;;;0.70;0.70;;;;;;;9.90;54.09;101825.16;5169800;28;20115;-79
2022/03/28 04:39:12;;;;;;;1.48;1.38;;;;;;;9.91;54.27;101821.66;5152413;28;20033;-79
2022/03/28 04:41:42;;;;;;;1.17;1.17;;;;;;;9.86;54.42;101816.44;5201294;28;20030;-79
2022/03/28 04:44:13;;;;;;;1.17;1.17;;;;;;;9.83;54.03;101816.50;5182301;28;20034;-80
2022/03/28 04:46:46;;;;;;;4.93;2.67;;;;;;;9.88;54.35;101824.28;5186126;28;20395;-79
2022/03/28 04:49:17;;;;;;;2.03;1.83;;;;;;;9.80;53.79;101823.47;5185887;28;20033;-79
2022/03/28 04:51:47;;;;;;;2.35;2.15;;;;;;;9.79;53.91;101819.13;5167232;28;20040;-79
2022/03/28 04:54:18;;;;;;;2.17;1.55;;;;;;;9.76;53.81;101820.88;5187246;28;20093;-81
2022/03/28 04:56:48;;;;;;;2.95;2.75;;;;;;;9.73;53.89;101822.66;5172455;28;20030;-80
2022/03/28 04:59:19;;;;;;;1.83;1.70;;;;;;;9.60;54.17;101829.72;5201769;28;20041;-80
2022/03/28 05:01:49;;;;;;;1.70;1.60;;;;;;;9.56;53.88;101827.97;5193524;28;20393;-78
2022/03/28 05:04:19;;;;;;;2.47;2.05;;;;;;;9.58;54.48;101821.88;5190519;28;20030;-79
2022/03/28 05:06:50;;;;;;;0.65;0.65;;;;;;;9.62;54.50;101817.47;5172104;28;20038;-80
2022/03/28 05:09:21;;;;;;;1.50;1.40;;;;;;;9.61;54.38;101823.59;5192172;28;20068;-79
2022/03/28 05:11:51;;;;;;;2.30;2.13;;;;;;;9.63;54.17;101824.44;5190627;28;20405;-79
2022/03/28 05:14:22;;;;;;;1.77;1.67;;;;;;;9.58;54.56;101821.88;5190043;28;20115;-79
2022/03/28 05:16:53;;;;;;;1.92;1.83;;;;;;;9.61;54.31;101820.97;5208701;28;20116;-79
2022/03/28 05:19:23;;;;;;;1.05;1.05;;;;;;;9.60;54.90;101825.31;5206880;28;20591;-79
2022/03/28 05:21:54;;;;;;;1.75;1.65;;;;;;;9.54;54.13;101819.28;5189633;28;20314;-80
2022/03/28 05:24:24;;;;;;;1.63;1.15;;;;;;;9.51;54.16;101821.91;5171659;28;20072;-79
2022/03/28 05:26:55;;;;;;;0.70;0.70;;;;;;;9.53;54.55;101817.53;5227280;22;20124;-77
2022/03/28 05:29:25;;;;;;;3.92;2.45;;;;;;;9.45;55.20;101817.56;5192295;28;20595;-77
2022/03/28 05:31:56;;;;;;;2.67;2.47;;;;;;;9.45;54.80;101826.31;5182903;28;20116;-77
2022/03/28 05:34:28;;;;;;;2.33;2.20;;;;;;;9.44;54.67;101827.19;5175224;28;20044;-77
2022/03/28 05:37:00;;;;;;;3.45;2.20;;;;;;;9.44;54.87;101829.78;5215596;28;20036;-77
2022/03/28 05:39:33;;;;;;;15.80;2.38;;;;;;;9.45;55.17;101831.53;5191137;28;20064;-78
2022/03/28 05:42:04;;;;;;;1.80;1.70;;;;;;;9.41;54.62;101831.56;5174162;28;20033;-77
2022/03/28 05:44:37;;;;;;;1.13;1.10;;;;;;;9.24;56.24;101826.38;5202669;28;20489;-77
2022/03/28 05:47:08;;;;;;;1.88;1.75;;;;;;;9.31;55.19;101822.00;5199359;28;20034;-77
2022/03/28 05:49:38;;;;;;;5.22;4.22;;;;;;;9.35;55.54;101827.22;5195137;28;20041;-77
2022/03/28 05:52:09;;;;;;;3.22;2.55;;;;;;;9.30;54.92;101831.56;5199484;28;20083;-77
2022/03/28 05:54:39;;;;;;;3.28;2.80;;;;;;;9.31;55.35;101825.47;5191087;28;20053;-78
2022/03/28 05:57:10;;;;;;;3.50;2.55;;;;;;;9.35;55.59;101824.59;5177064;28;20135;-77
2022/03/28 05:59:40;;;;;;;1.48;1.33;;;;;;;9.31;55.63;101817.59;5193011;28;20460;-76
2022/03/28 06:02:14;;;;;;;3.28;2.70;;;;;;;9.34;55.87;101817.59;5185538;28;20079;-75
2022/03/28 06:04:44;;;;;;;1.80;1.70;;;;;;;9.34;55.88;101817.59;5191568;28;20041;-75
2022/03/28 06:07:15;;;;;;;2.08;1.90;;;;;;;9.35;55.98;101819.34;5190586;28;20032;-76
2022/03/28 06:09:45;;;;;;;1.90;1.80;;;;;;;9.35;55.53;101824.59;5190361;28;20509;-75
2022/03/28 06:12:16;;;;;;;3.08;2.45;;;;;;;9.22;55.34;101823.78;5209680;28;20401;-75
2022/03/28 06:14:47;;;;;;;31.75;6.70;;;;;;;9.22;56.01;101828.13;5180427;28;20528;-75
2022/03/28 06:17:25;;;;;;;3.42;3.13;;;;;;;9.19;56.52;101829.00;5198406;28;20029;-75
2022/03/28 06:19:55;;;;;;;2.67;2.33;;;;;;;9.24;56.10;101829.00;5173480;28;20063;-75
2022/03/28 06:22:26;;;;;;;3.72;3.40;;;;;;;9.26;55.72;101825.47;5179662;28;20033;-76
2022/03/28 06:24:59;;;;;;;23.17;4.93;;;;;;;9.31;56.85;101822.00;5184408;28;20106;-76
2022/03/28 06:27:29;;;;;;;13.57;2.80;;;;;;;9.28;56.17;101820.25;5194419;28;20436;-76
2022/03/28 06:30:00;;;;;;;1.60;1.50;;;;;;;9.30;56.51;101823.72;5212949;28;20102;-76
2022/03/28 06:32:30;;;;;;;1.98;1.88;;;;;;;9.31;56.66;101812.38;5198950;28;20088;-76
2022/03/28 06:35:01;;;;;;;3.08;2.88;;;;;;;9.33;56.62;101820.25;5190558;28;20042;-76
2022/03/28 06:37:32;;;;;;;1.48;1.38;;;;;;;9.33;56.63;101822.84;5202237;28;20037;-76
2022/03/28 06:40:04;;;;;;;3.38;2.53;;;;;;;9.25;56.42;101820.25;5208746;28;20046;-76
2022/03/28 06:42:35;;;;;;;3.22;2.17;;;;;;;9.33;56.73;101820.25;5200252;28;20025;-77
2022/03/28 06:45:06;;;;;;;1.38;1.27;;;;;;;9.34;56.75;101822.00;5184048;28;20034;-77
2022/03/28 06:47:37;;;;;;;12.40;2.53;;;;;;;9.38;57.34;101824.56;5202919;28;20349;-78
2022/03/28 06:50:09;;;;;;;2.47;2.28;;;;;;;9.31;56.99;101817.59;5197472;28;20045;-77
2022/03/28 06:52:39;;;;;;;2.42;2.05;;;;;;;9.44;57.64;101808.84;5200919;28;20034;-77
2022/03/28 06:55:10;;;;;;;2.95;1.48;;;;;;;9.44;57.62;101807.94;5191141;28;20064;-77
2022/03/28 06:57:59;;;;;;;1.55;1.45;;;;;;;9.54;58.94;101811.41;5198839;28;20366;-78
2022/03/28 07:00:29;;;;;;;1.67;1.60;;;;;;;9.49;57.62;101805.31;5202709;28;20602;-78
2022/03/28 07:03:00;;;;;;;5.65;3.08;;;;;;;9.38;57.59;101800.13;5205630;28;20036;-78
2022/03/28 07:05:30;;;;;;;3.65;2.80;;;;;;;9.42;57.81;101804.50;5200941;28;20044;-77
2022/03/28 07:08:01;;;;;;;3.10;2.58;;;;;;;9.36;58.42;101805.38;5199144;28;20056;-77
2022/03/28 07:10:31;;;;;;;1.60;1.50;;;;;;;9.50;60.37;101797.47;5173454;28;20076;-77
2022/03/28 07:13:02;;;;;;;4.75;4.15;;;;;;;9.44;59.74;101793.13;5217061;28;20036;-77
2022/03/28 07:15:33;;;;;;;4.68;2.92;;;;;;;9.66;60.62;101797.38;5178348;28;20597;-78
2022/03/28 07:18:06;;;;;;;3.45;3.20;;;;;;;9.56;59.15;101796.53;5204639;28;20442;-78
2022/03/28 07:20:39;;;;;;;2.20;2.03;;;;;;;9.56;59.06;101792.19;5181158;28;20582;-77
2022/03/28 07:23:10;;;;;;;1.55;1.17;;;;;;;9.61;60.46;101792.16;5184452;28;20033;-78
2022/03/28 07:25:40;;;;;;;1.27;1.25;;;;;;;9.70;60.80;101794.72;5201013;28;20140;-78
2022/03/28 07:28:12;;;;;;;3.53;2.53;;;;;;;9.67;59.59;101789.50;5191524;28;20037;-78
2022/03/28 07:30:43;;;;;;;2.20;2.10;;;;;;;9.84;60.40;101781.50;5198410;28;20596;-78
2022/03/28 07:33:14;;;;;;;2.35;2.10;;;;;;;9.92;59.83;101781.47;5200265;28;20090;-78
2022/03/28 07:35:45;;;;;;;1.83;1.73;;;;;;;9.85;60.03;101787.63;5213732;28;20036;-78
2022/03/28 07:38:15;;;;;;;3.08;2.88;;;;;;;9.91;60.64;101782.34;5191813;28;20060;-77
2022/03/28 07:40:46;;;;;;;2.08;1.98;;;;;;;10.05;59.40;101777.84;5187902;28;20204;-78
2022/03/28 07:43:17;;;;;;;2.28;2.10;;;;;;;10.04;60.06;101775.25;5195253;28;20122;-78
2022/03/28 07:45:48;;;;;;;1.25;1.23;;;;;;;10.10;60.81;101771.72;5182102;28;20036;-77
2022/03/28 07:48:19;;;;;;;3.45;3.13;;;;;;;10.29;60.25;101762.78;5178892;28;20037;-78
2022/03/28 07:50:50;;;;;;;7.65;2.88;;;;;;;10.36;61.67;101769.75;5216381;28;20036;-78
2022/03/28 07:53:20;;;;;;;1.30;1.20;;;;;;;10.25;61.23;101771.59;5191588;28;20132;-78
2022/03/28 07:55:51;;;;;;;3.83;2.95;;;;;;;10.35;62.67;101769.72;5199398;28;20082;-78
2022/03/28 07:58:21;;;;;;;2.53;2.35;;;;;;;10.33;61.71;101761.88;5193235;28;20026;-78
2022/03/28 08:00:52;;;;;;;7.85;2.80;;;;;;;10.41;61.54;101759.22;5174293;28;20052;-77
2022/03/28 08:03:24;;;;;;;1.88;1.77;;;;;;;10.42;60.90;101758.31;5175941;28;20198;-77
2022/03/28 08:05:54;;;;;;;2.03;1.77;;;;;;;10.44;60.85;101763.56;5180208;28;20425;-78
2022/03/28 08:08:25;;;;;;;2.75;2.55;;;;;;;10.45;61.53;101760.06;5178082;28;20025;-77
2022/03/28 08:10:55;;;;;;;5.13;3.78;;;;;;;10.43;60.30;101748.72;5203814;28;20045;-77
2022/03/28 08:13:26;;;;;;;5.10;2.97;;;;;;;10.50;60.00;101758.25;5195009;28;20475;-77
2022/03/28 08:15:56;;;;;;;4.32;1.88;;;;;;;10.50;61.19;101747.75;5194597;28;20477;-78
2022/03/28 08:18:27;;;;;;;2.60;2.22;;;;;;;10.53;60.75;101740.72;5192068;28;20029;-78
2022/03/28 08:20:57;;;;;;;5.10;2.88;;;;;;;10.68;63.85;101744.06;5210198;28;20044;-78
2022/03/28 08:23:28;;;;;;;2.75;2.22;;;;;;;10.59;63.22;101738.91;5195317;28;20170;-78
2022/03/28 08:25:59;;;;;;;2.97;2.70;;;;;;;10.67;64.49;101737.06;5176371;28;20048;-78
2022/03/28 08:28:34;;;;;;;2.08;1.98;;;;;;;10.66;64.77;101741.47;5193472;28;20049;-78
2022/03/28 08:31:05;;;;;;;3.15;2.55;;;;;;;10.69;64.57;101735.31;5209927;28;20442;-75
2022/03/28 08:33:35;;;;;;;2.15;2.00;;;;;;;10.75;63.15;101734.38;5199915;28;20224;-76
2022/03/28 08:36:07;;;;;;;2.33;2.22;;;;;;;10.91;61.80;101730.69;5190088;28;20096;-77
2022/03/28 08:38:39;;;;;;;1.95;1.85;;;;;;;10.82;63.79;101728.16;5188085;28;20064;-77
2022/03/28 08:41:14;;;;;;;3.40;2.90;;;;;;;11.01;64.84;101720.91;5204964;28;20374;-77
2022/03/28 08:43:45;;;;;;;3.22;2.97;;;;;;;10.97;64.21;101729.75;5201696;28;20040;-77
2022/03/28 08:46:16;;;;;;;2.30;2.10;;;;;;;10.94;64.47;101728.03;5183183;28;20045;-77
2022/03/28 08:48:47;;;;;;;3.67;3.00;;;;;;;11.05;64.57;101725.25;5211659;28;20024;-78
2022/03/28 08:51:19;;;;;;;2.03;1.92;;;;;;;11.03;63.03;101717.38;5192620;28;20037;-77
2022/03/28 08:53:50;;;;;;;2.50;2.30;;;;;;;11.00;63.40;101713.91;5184115;28;20036;-78
2022/03/28 08:56:21;;;;;;;5.57;3.70;;;;;;;11.10;65.24;101715.53;5193562;28;20739;-77
2022/03/28 08:58:51;;;;;;;2.30;2.17;;;;;;;11.13;64.90;101704.13;5196706;28;20044;-77
2022/03/28 09:01:23;;;;;;;2.85;2.65;;;;;;;11.18;64.38;101710.19;5183958;28;20251;-78
2022/03/28 09:03:53;;;;;;;2.20;2.10;;;;;;;11.22;65.59;101703.16;5181228;28;20056;-77
2022/03/28 09:06:37;;;;;;;2.17;1.77;;;;;;;11.30;64.96;101712.66;5161876;28;20192;-77
2022/03/28 09:09:21;;;;;;;2.42;1.70;;;;;;;11.36;64.75;101709.06;5190740;28;20037;-77
2022/03/28 09:11:58;;;;;;;1.45;1.35;;;;;;;11.37;64.54;101709.91;5173114;28;20115;-77
2022/03/28 09:14:31;;;;;;;4.13;2.88;;;;;;;11.47;64.00;101701.00;5191521;28;20575;-78
2022/03/28 09:17:06;;;;;;;;;;;;;;;11.48;63.89;101701.00;5199868;28;20047;-78
2022/03/28 09:20:02;;;;;;;3.58;2.35;;;;;;;11.51;63.28;101694.84;5214059;28;19925;-78
2022/03/28 09:22:37;;;;;;;2.78;2.40;;;;;;;11.52;63.10;101687.81;5196690;28;20068;-77
2022/03/28 09:25:12;;;;;;;2.92;2.42;;;;;;;11.65;62.41;101686.75;5207113;28;20061;-78
2022/03/28 09:27:44;;;;;;;4.00;3.70;;;;;;;11.67;63.15;101684.94;5192615;28;20139;-77
2022/03/28 09:30:21;;;;;;;3.50;3.20;;;;;;;11.69;62.44;101684.94;5190137;28;20096;-77
2022/03/28 09:32:52;;;;;;;4.57;2.90;;;;;;;11.81;62.54;101682.09;5214115;28;20334;-77
2022/03/28 09:35:26;;;;;;;1.50;1.40;;;;;;;11.91;62.19;101678.41;5196300;28;20104;-76
2022/03/28 09:38:02;;;;;;;4.85;1.98;;;;;;;11.94;62.49;101675.69;5195721;28;20501;-77
2022/03/28 09:40:39;;;;;;;3.40;2.58;;;;;;;11.94;63.25;101673.06;5185383;28;20103;-77
2022/03/28 09:43:24;;;;;;;6.63;4.80;;;;;;;12.10;62.44;101672.84;5183997;28;20045;-78
2022/03/28 09:45:56;;;;;;;2.15;2.05;;;;;;;12.09;62.62;101676.38;5176175;28;20107;-78
2022/03/28 09:48:28;;;;;;;6.38;2.00;;;;;;;12.23;63.03;101671.72;5161767;28;20379;-77
2022/03/28 09:51:03;;;;;;;2.33;2.00;;;;;;;12.20;62.18;101674.41;5199505;28;20487;-77
2022/03/28 09:53:38;;;;;;;4.60;3.80;;;;;;;12.33;63.18;101668.94;5178274;28;20265;-76
2022/03/28 09:56:11;;;;;;;3.70;2.40;;;;;;;12.42;61.65;101664.34;5179110;28;20057;-78
2022/03/28 09:58:45;;;;;;;2.60;2.40;;;;;;;12.44;62.77;101664.28;5196077;28;20517;-78
2022/03/28 10:01:24;;;;;;;1.92;1.80;;;;;;;12.62;62.10;101663.09;5196515;28;20229;-78
2022/03/28 10:04:00;;;;;;;2.97;2.70;;;;;;;12.65;61.80;101654.25;5191892;28;20125;-77
2022/03/28 10:06:32;;;;;;;2.53;1.95;;;;;;;12.85;61.92;101659.94;5205658;28;20144;-78
2022/03/28 10:09:05;;;;;;;4.38;3.78;;;;;;;12.80;62.16;101656.56;5192104;28;20036;-79
2022/03/28 10:11:38;;;;;;;4.60;3.13;;;;;;;12.92;62.68;101652.78;5177290;28;20036;-78
2022/03/28 10:14:09;;;;;;;;;;;;;;;13.09;61.42;101639.25;5196923;28;20037;-77
2022/03/28 10:16:39;;;;;;;1.92;1.80;;;;;;;13.02;61.03;101646.41;5197695;28;19917;-77
2022/03/28 10:19:10;;;;;;;4.55;2.45;;;;;;;13.13;60.93;101640.91;5197347;28;20030;-77
2022/03/28 10:21:43;;;;;;;2.30;2.20;;;;;;;13.15;60.90;101639.09;5181026;28;20049;-77
2022/03/28 10:24:18;;;;;;;1.98;1.88;;;;;;;13.12;60.72;101631.25;5215132;28;20269;-77
2022/03/28 10:26:55;;;;;;;2.58;2.38;;;;;;;13.16;60.62;101635.56;5165879;28;20052;-77
2022/03/28 10:29:38;;;;;;;3.22;2.72;;;;;;;13.26;60.26;101619.53;5197262;28;20025;-78
2022/03/28 10:32:19;;;;;;;2.50;2.33;;;;;;;13.30;60.41;101619.44;5196606;28;20107;-77
2022/03/28 10:34:53;;;;;;;2.97;1.95;;;;;;;13.38;59.82;101613.97;5198118;28;20044;-78
2022/03/28 10:37:50;;;;;;;1.58;1.48;;;;;;;13.35;60.15;101608.75;5198444;28;20033;-78
2022/03/28 10:40:30;;;;;;;2.17;2.00;;;;;;;13.57;59.74;101605.63;5189200;28;20053;-77
2022/03/28 10:43:06;;;;;;;2.08;1.95;;;;;;;13.51;59.78;101604.88;5196704;28;20108;-78
2022/03/28 10:45:39;;;;;;;2.42;1.80;;;;;;;13.57;59.49;101601.22;5195609;28;20050;-77
2022/03/28 10:48:10;;;;;;;4.47;2.70;;;;;;;13.69;59.50;101590.34;5194767;28;20041;-77
2022/03/28 10:50:51;;;;;;;4.53;2.33;;;;;;;13.84;59.36;101596.97;5201515;28;20041;-77
2022/03/28 10:53:33;;;;;;;2.53;2.33;;;;;;;13.80;58.99;101587.44;5215948;28;20085;-78
2022/03/28 10:56:18;;;;;;;2.40;2.20;;;;;;;13.91;58.78;101588.91;5176905;28;20099;-77
2022/03/28 10:58:57;;;;;;;2.25;2.13;;;;;;;14.01;58.94;101585.09;5160347;28;20116;-77
2022/03/28 11:01:29;;;;;;;2.45;1.15;;;;;;;14.00;59.18;101576.34;5196477;28;20041;-77
2022/03/28 11:04:05;;;;;;;1.58;1.48;;;;;;;14.13;58.31;101571.56;5195641;28;20520;-77
2022/03/28 11:06:45;;;;;;;3.15;2.00;;;;;;;14.14;58.50;101568.03;5193350;28;20057;-78
2022/03/28 11:09:51;;;;;;;3.92;3.35;;;;;;;14.21;58.67;101565.22;5177487;28;20044;-77
2022/03/28 11:12:40;;;;;;;4.57;3.08;;;;;;;14.30;59.05;101570.22;5185742;28;20305;-77
2022/03/28 11:15:23;;;;;;;3.47;3.17;;;;;;;14.39;59.79;101558.53;5191718;28;20049;-78
2022/03/28 11:18:02;;;;;;;8.25;4.35;;;;;;;14.48;58.94;101559.13;5193538;28;20041;-78
2022/03/28 11:20:47;;;;;;;6.05;3.40;;;;;;;14.64;58.45;101561.31;5190752;28;20052;-76
2022/03/28 11:23:20;;;;;;;6.43;3.63;;;;;;;14.76;58.41;101558.28;5192990;28;20033;-77
2022/03/28 11:25:52;;;;;;;2.78;2.58;;;;;;;14.77;58.05;101548.59;5215245;22;20045;-82
2022/03/28 11:28:22;;;;;;;7.18;2.40;;;;;;;14.94;57.43;101548.06;5214353;28;20078;-81
2022/03/28 11:30:59;;;;;;;2.80;2.38;;;;;;;14.87;57.69;101536.84;5177955;28;20057;-78
2022/03/28 11:33:31;;;;;;;2.65;2.42;;;;;;;14.86;57.60;101535.13;5195730;28;20041;-81
2022/03/28 11:36:05;;;;;;;3.50;2.58;;;;;;;15.02;58.05;101534.63;5207893;28;20482;-82
2022/03/28 11:38:47;;;;;;;2.88;2.55;;;;;;;15.26;56.05;101532.91;5195769;28;20029;-81
2022/03/28 11:41:20;;;;;;;3.00;2.38;;;;;;;15.31;56.55;101531.00;5209759;28;20526;-83
2022/03/28 11:43:53;;;;;;;2.72;2.45;;;;;;;15.57;54.69;101529.22;5200396;28;20036;-81
2022/03/28 11:46:26;;;;;;;3.35;2.72;;;;;;;15.67;54.83;101521.81;5197246;28;20107;-82
2022/03/28 11:49:04;;;;;;;2.58;2.17;;;;;;;15.62;55.04;101527.28;5216167;28;20492;-83
2022/03/28 11:51:40;;;;;;;1.60;1.50;;;;;;;15.80;53.80;101524.91;5197878;28;20591;-79
2022/03/28 11:54:13;;;;;;;3.30;2.95;;;;;;;15.79;54.64;101510.78;5196604;28;20029;-79